Time;durP1;ratioP1;P1;durP2;ratioP2;P2;SDS_P1;SDS_P2;PMS_P1;PMS_P2;Temp;Humidity;BMP_temperature;BMP_pressure;BME280_temperature;BME280_humidity;BME280_pressure;Samples;Min_cycle;Max_cycle;Signal;HPM_P1;HPM_P2
2023/05/20 00:01:30;;;;;;;;;15.33;14.33;;;;;16.81;46.17;101843.31;6216241;22;74115;-60
2023/05/20 00:03:56;;;;;;;;;18.00;14.33;;;;;16.78;47.16;101842.63;6217029;22;52282;-60
2023/05/20 00:06:21;;;;;;;;;14.67;14.67;;;;;16.74;46.82;101841.97;6217478;22;45185;-60
2023/05/20 00:08:47;;;;;;;;;16.00;16.00;;;;;16.73;46.49;101834.84;6190753;22;45311;-60
2023/05/20 00:11:12;;;;;;;;;17.33;15.67;;;;;16.71;46.24;101844.81;6216259;22;67892;-60
2023/05/20 00:13:38;;;;;;;;;17.00;12.33;;;;;16.69;46.70;101834.16;6189807;22;57207;-60
2023/05/20 00:16:04;;;;;;;;;14.33;13.33;;;;;16.85;46.11;101834.09;6217383;22;45324;-61
2023/05/20 00:18:29;;;;;;;;;16.00;14.33;;;;;16.69;46.32;101836.84;6217959;22;45221;-60
2023/05/20 00:20:55;;;;;;;;;18.33;13.67;;;;;16.66;46.85;101839.72;6217126;22;45862;-60
2023/05/20 00:23:20;;;;;;;;;16.33;16.33;;;;;16.63;47.80;101839.03;6217100;22;45233;-60
2023/05/20 00:25:45;;;;;;;;;14.67;12.33;;;;;16.60;46.96;101826.66;6217753;22;45472;-60
2023/05/20 00:28:11;;;;;;;;;16.33;14.00;;;;;16.59;46.81;101830.28;6189352;22;69520;-61
2023/05/20 00:30:40;;;;;;;;;13.33;13.33;;;;;16.60;46.66;101828.50;6216062;22;64100;-59
2023/05/20 00:33:05;;;;;;;;;17.00;16.00;;;;;16.69;47.06;101827.94;6217168;22;45395;-59
2023/05/20 00:35:31;;;;;;;;;14.00;13.00;;;;;16.78;46.63;101826.50;6190623;22;45301;-59
2023/05/20 00:37:56;;;;;;;;;16.00;14.33;;;;;16.95;46.14;101822.84;6189420;22;58664;-60
2023/05/20 00:40:23;;;;;;;;;16.00;15.00;;;;;17.10;45.32;101821.88;6189984;22;46315;-59
2023/05/20 00:42:49;;;;;;;;;15.33;14.33;;;;;17.11;45.40;101812.88;6190166;22;45226;-59
2023/05/20 00:45:14;;;;;;;;;18.00;14.00;;;;;16.89;45.64;101818.66;6190185;22;45281;-59
2023/05/20 00:47:41;;;;;;;;;15.00;15.00;;;;;16.84;46.08;101812.72;6217548;22;45224;-59
2023/05/20 00:50:08;;;;;;;;;12.67;10.00;;;;;16.83;45.99;101809.16;6165093;22;47215;-59
2023/05/20 00:52:35;;;;;;;;;15.33;15.33;;;;;16.84;46.14;101808.22;6190367;22;45342;-59
2023/05/20 00:55:02;;;;;;;;;13.00;12.33;;;;;16.83;45.81;101802.91;6190584;22;45358;-59
2023/05/20 00:57:27;;;;;;;;;15.00;13.33;;;;;16.81;45.81;101810.22;6189931;22;45312;-59
2023/05/20 00:59:53;;;;;;;;;18.33;15.33;;;;;16.76;46.46;101805.09;6189947;22;48174;-62
2023/05/20 01:02:18;;;;;;;;;15.00;15.00;;;;;16.86;46.04;101802.75;6189923;22;60173;-60
2023/05/20 01:04:46;;;;;;;;;18.00;12.33;;;;;16.48;46.79;101792.50;6217464;22;45478;-59
2023/05/20 01:07:13;;;;;;;;;16.67;14.00;;;;;16.54;46.67;101792.09;6190756;22;45347;-59
2023/05/20 01:09:38;;;;;;;;;19.00;16.33;;;;;16.30;47.72;101792.59;6215460;22;46294;-59
2023/05/20 01:12:25;;;;;;;;;13.33;13.00;;;;;16.20;47.65;101789.59;6215734;22;69905;-59
2023/05/20 01:14:59;;;;;;;;;19.00;14.00;;;;;16.16;47.51;101789.84;6215179;22;45410;-59
2023/05/20 01:17:26;;;;;;;;;13.33;13.00;;;;;16.11;48.32;101787.44;6190762;22;45307;-59
2023/05/20 01:19:53;;;;;;;;;17.00;15.33;;;;;16.02;47.75;101783.47;6190323;22;45629;-59
2023/05/20 01:22:23;;;;;;;;;17.33;15.67;;;;;16.02;48.63;101783.47;6216401;22;45335;-59
2023/05/20 01:24:52;;;;;;;;;15.67;14.00;;;;;15.99;48.11;101783.63;6189631;22;45339;-59
2023/05/20 01:27:19;;;;;;;;;16.67;15.33;;;;;15.94;48.11;101777.66;6216999;22;45324;-59
2023/05/20 01:29:47;;;;;;;;;20.00;16.33;;;;;15.92;48.51;101779.59;6164898;22;47073;-59
2023/05/20 01:32:23;;;;;;;;;15.00;13.00;;;;;15.92;48.25;101779.59;6215836;22;45327;-59
2023/05/20 01:34:50;;;;;;;;;16.67;14.33;;;;;15.91;48.50;101777.84;6165005;22;45387;-60
2023/05/20 01:37:17;;;;;;;;;16.00;15.00;;;;;15.93;48.64;101778.66;6164684;22;45274;-59
2023/05/20 01:39:42;;;;;;;;;13.67;12.67;;;;;15.96;48.24;101778.47;6190069;22;45398;-59
2023/05/20 01:42:09;;;;;;;;;25.67;17.33;;;;;15.97;48.45;101780.19;6189554;22;56591;-59
2023/05/20 01:44:34;;;;;;;;;20.67;14.67;;;;;15.95;48.70;101773.19;6190852;22;45232;-59
2023/05/20 01:47:03;;;;;;;;;20.67;19.00;;;;;15.92;48.18;101774.22;6191171;22;45359;-59
2023/05/20 01:49:28;;;;;;;;;22.67;17.33;;;;;15.91;48.82;101768.97;6216976;22;45503;-59
2023/05/20 01:51:54;;;;;;;;;15.33;13.67;;;;;15.88;49.51;101762.81;6214555;22;45343;-59
2023/05/20 01:54:19;;;;;;;;;16.00;13.67;;;;;15.84;48.47;101763.06;6190022;22;45368;-59
2023/05/20 01:56:45;;;;;;;;;21.67;17.33;;;;;15.82;49.14;101759.59;6189889;22;46788;-59
2023/05/20 01:59:10;;;;;;;;;16.67;14.67;;;;;15.77;50.00;101769.69;6215490;22;67208;-59
2023/05/20 02:01:36;;;;;;;;;21.67;17.33;;;;;15.73;49.96;101766.31;6216998;22;45238;-59
2023/05/20 02:04:01;;;;;;;;;21.33;17.67;;;;;15.67;49.01;101755.94;6217104;22;45276;-59
2023/05/20 02:06:27;;;;;;;;;16.67;16.33;;;;;15.64;49.45;101756.13;6164554;22;45500;-59
2023/05/20 02:08:52;;;;;;;;;16.00;16.00;;;;;15.60;49.72;101758.09;6190225;22;45423;-59
2023/05/20 02:11:17;;;;;;;;;21.00;16.33;;;;;15.57;49.35;101760.09;6216087;22;62669;-59
2023/05/20 02:13:43;;;;;;;;;17.67;16.33;;;;;15.52;49.61;101758.53;6216490;22;52231;-59
2023/05/20 02:16:08;;;;;;;;;15.67;13.33;;;;;15.50;49.32;101759.56;6217053;22;45328;-59
2023/05/20 02:18:34;;;;;;;;;16.33;15.00;;;;;15.49;50.25;101755.16;6215748;22;73364;-59
2023/05/20 02:21:03;;;;;;;;;19.33;16.67;;;;;15.45;50.07;101758.94;6189606;22;45729;-59
2023/05/20 02:23:29;;;;;;;;;20.00;20.00;;;;;15.43;50.51;101753.66;6189783;22;45354;-59
2023/05/20 02:25:55;;;;;;;;;20.00;18.67;;;;;15.39;50.22;101749.44;6216931;22;45484;-59
2023/05/20 02:28:20;;;;;;;;;22.00;16.33;;;;;15.37;50.14;101749.53;6216239;22;46286;-59
2023/05/20 02:30:45;;;;;;;;;17.67;15.67;;;;;15.37;50.12;101751.34;6215750;22;62567;-60
2023/05/20 02:33:11;;;;;;;;;21.33;16.33;;;;;15.36;50.12;101747.78;6190064;22;45444;-60
2023/05/20 02:35:36;;;;;;;;;14.00;12.67;;;;;15.37;50.45;101748.69;6189914;22;45276;-60
2023/05/20 02:38:02;;;;;;;;;19.00;18.00;;;;;15.39;50.84;101752.13;6214316;22;46476;-60
2023/05/20 02:40:27;;;;;;;;;23.33;19.67;;;;;15.41;50.14;101760.94;6215707;22;61957;-60
2023/05/20 02:42:52;;;;;;;;;18.33;16.67;;;;;15.41;50.54;101752.91;6217056;22;45218;-60
2023/05/20 02:45:18;;;;;;;;;17.00;15.67;;;;;15.42;50.53;101756.44;6190087;22;45525;-60
2023/05/20 02:47:43;;;;;;;;;21.00;17.33;;;;;15.44;50.53;101752.72;6215686;22;69210;-59
2023/05/20 02:50:09;;;;;;;;;23.67;21.00;;;;;15.48;50.60;101756.13;6215860;22;64458;-60
2023/05/20 02:52:34;;;;;;;;;17.67;15.67;;;;;15.48;50.63;101748.06;6189271;22;45216;-59
2023/05/20 02:55:00;;;;;;;;;19.67;19.67;;;;;15.53;50.24;101748.69;6189549;22;45550;-59
2023/05/20 02:57:27;;;;;;;;;24.67;19.00;;;;;15.58;50.19;101746.59;6189229;22;56750;-60
2023/05/20 02:59:53;;;;;;;;;28.67;20.67;;;;;15.65;50.57;101744.44;6216179;22;45359;-60
2023/05/20 03:02:18;;;;;;;;;26.00;18.67;;;;;15.69;50.67;101740.63;6216549;22;45268;-60
2023/05/20 03:04:45;;;;;;;;;21.67;18.33;;;;;15.74;50.49;101737.69;6189450;22;50875;-59
2023/05/20 03:07:10;;;;;;;;;22.67;18.67;;;;;15.79;50.18;101732.94;6216212;22;46481;-59
2023/05/20 03:09:36;;;;;;;;;17.00;17.00;;;;;15.82;49.95;101730.94;6189706;22;45360;-62
2023/05/20 03:12:01;;;;;;;;;18.33;16.67;;;;;15.88;49.82;101737.81;6189499;22;45211;-60
2023/05/20 03:14:26;;;;;;;;;20.00;18.67;;;;;15.90;50.03;101735.03;6189986;22;45403;-60
2023/05/20 03:16:54;;;;;;;;;21.67;20.00;;;;;15.94;50.27;101737.41;6188321;22;72232;-60
2023/05/20 03:19:20;;;;;;;;;23.33;18.67;;;;;15.98;49.46;101739.00;6215905;22;45344;-60
2023/05/20 03:21:45;;;;;;;;;25.00;21.00;;;;;16.02;50.20;101727.13;6216120;22;45263;-60
2023/05/20 03:24:10;;;;;;;;;21.33;18.67;;;;;16.03;49.44;101720.81;6163330;22;66061;-60
2023/05/20 03:26:37;;;;;;;;;21.00;20.67;;;;;16.10;49.78;101725.81;6215724;22;55190;-60
2023/05/20 03:29:04;;;;;;;;;18.33;17.00;;;;;16.11;49.49;101723.03;6164208;22;45912;-59
2023/05/20 03:31:29;;;;;;;;;17.33;17.00;;;;;16.13;49.24;101726.50;6157655;23;68548;-60
2023/05/20 03:33:55;;;;;;;;;22.67;19.67;;;;;16.14;49.44;101730.03;6208496;22;64616;-60
2023/05/20 03:36:20;;;;;;;;;18.67;16.33;;;;;16.13;49.42;101718.44;6183017;23;54980;-60
2023/05/20 03:38:45;;;;;;;;;20.00;18.33;;;;;16.14;49.72;101719.28;6209854;22;45755;-59
2023/05/20 03:41:11;;;;;;;;;22.33;21.33;;;;;16.10;49.58;101717.75;6210429;22;60436;-60
2023/05/20 03:43:36;;;;;;;;;19.00;16.00;;;;;16.09;49.77;101711.53;6186299;23;63873;-60
2023/05/20 03:46:01;;;;;;;;;17.33;15.00;;;;;16.10;49.95;101707.00;6185275;23;46444;-60
2023/05/20 03:48:27;;;;;;;;;24.00;21.67;;;;;16.09;49.48;101711.53;6185977;23;67762;-60
2023/05/20 03:50:52;;;;;;;;;21.00;18.67;;;;;16.08;49.60;101711.63;6187035;22;47674;-60
2023/05/20 03:53:19;;;;;;;;;21.33;20.33;;;;;16.08;49.54;101717.00;6185773;23;66492;-60
2023/05/20 03:55:44;;;;;;;;;19.33;18.00;;;;;16.07;49.79;101710.75;6187154;22;45328;-59
2023/05/20 03:58:09;;;;;;;;;20.00;17.00;;;;;16.09;49.89;101713.31;6187142;23;45201;-60
2023/05/20 04:00:35;;;;;;;;;20.67;19.00;;;;;16.06;49.73;101713.53;6186776;23;57377;-59
2023/05/20 04:03:00;;;;;;;;;24.67;22.33;;;;;16.05;49.88;101712.66;6187340;23;45416;-59
2023/05/20 04:05:26;;;;;;;;;23.33;21.00;;;;;16.05;49.99;101707.31;6185187;23;47207;-60
2023/05/20 04:07:51;;;;;;;;;24.33;21.33;;;;;16.07;49.90;101715.25;6209242;22;45325;-60
2023/05/20 04:10:18;;;;;;;;;24.67;20.67;;;;;16.07;49.93;101710.75;6186615;23;61219;-60
2023/05/20 04:12:43;;;;;;;;;26.00;19.67;;;;;16.05;49.63;101710.00;6185142;23;45346;-60
2023/05/20 04:15:09;;;;;;;;;31.00;26.67;;;;;16.05;49.68;101710.00;6186434;23;46012;-60
2023/05/20 04:17:37;;;;;;;;;27.00;22.33;;;;;16.05;50.11;101704.63;6209061;22;45278;-60
2023/05/20 04:20:05;;;;;;;;;25.00;22.00;;;;;16.02;49.93;101704.78;6186861;23;45312;-60
2023/05/20 04:22:30;;;;;;;;;19.67;19.00;;;;;16.02;50.02;101711.03;6209852;22;45378;-59
2023/05/20 04:24:56;;;;;;;;;22.00;22.00;;;;;16.04;50.22;101706.41;6209853;22;63971;-60
2023/05/20 04:27:22;;;;;;;;;23.00;20.67;;;;;16.02;50.05;101704.78;6186027;23;62727;-60
2023/05/20 04:29:47;;;;;;;;;21.33;21.33;;;;;16.02;50.40;101699.41;6185214;23;45355;-59
2023/05/20 04:32:17;;;;;;;;;22.67;20.67;;;;;16.00;50.13;101699.50;6208903;22;49325;-59
2023/05/20 04:34:44;;;;;;;;;24.33;23.00;;;;;16.04;49.98;101702.88;6164916;22;47518;-60
2023/05/20 04:37:09;;;;;;;;;23.33;19.67;;;;;16.06;50.38;101700.09;6165156;22;45538;-60
2023/05/20 04:39:35;;;;;;;;;26.00;23.00;;;;;16.08;49.62;101708.94;6216932;22;45474;-60
2023/05/20 04:42:01;;;;;;;;;22.67;19.33;;;;;16.10;49.51;101707.91;6217577;22;45284;-60
2023/05/20 04:44:28;;;;;;;;;25.33;21.67;;;;;16.11;50.10;101703.38;6190508;22;45373;-60
2023/05/20 04:46:54;;;;;;;;;27.33;23.67;;;;;16.14;50.21;101705.88;6190436;22;45333;-60
2023/05/20 04:49:20;;;;;;;;;28.67;27.67;;;;;16.14;50.03;101698.72;6190425;22;45390;-60
2023/05/20 04:51:46;;;;;;;;;21.33;21.33;;;;;16.17;49.77;101706.56;6216985;22;45363;-59
2023/05/20 04:54:12;;;;;;;;;25.33;22.33;;;;;16.20;50.42;101702.84;6216704;22;45480;-60
2023/05/20 04:56:39;;;;;;;;;23.33;20.33;;;;;16.19;50.34;101698.41;6217144;22;45325;-60
2023/05/20 04:59:04;;;;;;;;;26.00;23.33;;;;;16.16;50.09;101699.47;6190326;22;45235;-60
2023/05/20 05:01:29;;;;;;;;;23.67;23.33;;;;;16.17;50.11;101705.72;6217198;22;45613;-60
2023/05/20 05:03:55;;;;;;;;;21.00;18.00;;;;;16.20;49.65;101703.72;6189989;22;45316;-60
2023/05/20 05:06:20;;;;;;;;;26.00;24.67;;;;;16.22;50.07;101700.94;6190821;22;65091;-60
2023/05/20 05:08:46;;;;;;;;;25.00;23.33;;;;;16.20;49.65;101708.19;6217786;22;62676;-60
2023/05/20 05:11:11;;;;;;;;;30.00;23.33;;;;;16.18;50.14;101707.44;6190591;22;45370;-60
2023/05/20 05:13:36;;;;;;;;;27.00;27.00;;;;;16.13;50.23;101705.03;6217022;22;48688;-60
2023/05/20 05:16:02;;;;;;;;;30.33;24.00;;;;;16.12;50.29;101702.44;6189262;22;68687;-60
2023/05/20 05:18:27;;;;;;;;;22.67;21.67;;;;;16.12;50.77;101691.69;6217168;22;45327;-60
2023/05/20 05:21:03;;;;;;;;;32.00;27.67;;;;;16.06;50.53;101692.06;6216448;22;57088;-60
2023/05/20 05:23:28;;;;;;;;;26.33;23.00;;;;;16.07;51.20;101681.22;6189681;22;47506;-60
2023/05/20 05:25:53;;;;;;;;;25.00;23.00;;;;;16.25;50.37;101681.94;6190072;22;45413;-60
2023/05/20 05:28:19;;;;;;;;;29.00;26.00;;;;;16.25;50.39;101690.00;6190248;22;45363;-60
2023/05/20 05:30:44;;;;;;;;;25.33;24.33;;;;;16.29;49.96;101693.38;6190025;22;45480;-60
2023/05/20 05:33:09;;;;;;;;;28.00;27.67;;;;;16.35;50.29;101691.19;6216827;22;45521;-60
2023/05/20 05:35:35;;;;;;;;;28.67;25.00;;;;;16.33;50.34;101694.91;6215598;22;70932;-60
2023/05/20 05:38:00;;;;;;;;;29.00;26.00;;;;;16.31;49.79;101697.69;6215786;22;67372;-60
2023/05/20 05:40:26;;;;;;;;;32.00;26.33;;;;;16.34;49.85;101694.81;6190381;22;45311;-60
2023/05/20 05:42:51;;;;;;;;;31.33;26.33;;;;;16.33;50.44;101703.81;6190279;22;46267;-60
2023/05/20 05:45:17;;;;;;;;;28.00;26.67;;;;;16.37;50.97;101702.72;6216452;22;60023;-60
2023/05/20 05:47:42;;;;;;;;;28.33;27.00;;;;;16.42;50.05;101701.56;6217370;22;45559;-60
2023/05/20 05:50:09;;;;;;;;;28.67;27.00;;;;;16.43;49.64;101697.94;6217116;22;45534;-60
2023/05/20 05:52:34;;;;;;;;;25.00;24.33;;;;;16.46;49.82;101706.63;6215195;22;46483;-60
2023/05/20 05:54:59;;;;;;;;;29.00;25.33;;;;;16.48;50.31;101701.19;6216901;22;45311;-60
2023/05/20 05:57:25;;;;;;;;;27.67;25.67;;;;;16.45;50.12;101699.56;6216780;22;45973;-60
2023/05/20 05:59:50;;;;;;;;;32.00;25.00;;;;;16.46;50.08;101692.34;6215763;22;65934;-60
2023/05/20 06:02:16;;;;;;;;;27.67;25.33;;;;;16.49;50.57;101692.16;6216439;22;45394;-60
2023/05/20 06:04:41;;;;;;;;;23.33;23.33;;;;;16.51;49.92;101684.88;6189805;22;45949;-60
2023/05/20 06:07:07;;;;;;;;;31.00;26.33;;;;;16.57;49.76;101689.00;6216868;22;45626;-60
2023/05/20 06:09:32;;;;;;;;;26.67;25.33;;;;;16.62;49.91;101687.78;6190310;22;45568;-60
2023/05/20 06:11:58;;;;;;;;;29.33;26.00;;;;;16.67;49.88;101690.16;6190056;22;45209;-60
2023/05/20 06:14:23;;;;;;;;;35.67;24.33;;;;;16.75;49.66;101684.31;6215648;22;70161;-60
2023/05/20 06:16:48;;;;;;;;;27.33;23.67;;;;;16.79;49.64;101691.22;6217037;22;45571;-60
2023/05/20 06:19:13;;;;;;;;;27.67;26.00;;;;;16.84;49.66;101684.63;6189724;22;55626;-60
2023/05/20 06:21:39;;;;;;;;;28.33;23.33;;;;;16.88;48.95;101693.34;6215308;22;73392;-60
2023/05/20 06:24:04;;;;;;;;;26.00;21.67;;;;;16.90;49.34;101683.41;6189449;22;45828;-60
2023/05/20 06:26:30;;;;;;;;;27.33;26.00;;;;;16.94;49.25;101684.94;6216801;22;45347;-60
2023/05/20 06:28:56;;;;;;;;;24.33;22.33;;;;;17.01;49.11;101685.41;6216540;22;45453;-60
2023/05/20 06:31:21;;;;;;;;;26.67;26.67;;;;;17.06;48.61;101685.13;6189550;22;45434;-60
2023/05/20 06:33:46;;;;;;;;;28.67;26.33;;;;;17.09;48.69;101688.50;6163893;22;55968;-60
2023/05/20 06:36:12;;;;;;;;;29.67;25.67;;;;;17.12;49.03;101685.59;6189621;22;45266;-60
2023/05/20 06:38:37;;;;;;;;;31.33;26.33;;;;;17.20;48.40;101677.88;6189408;22;45805;-60
2023/05/20 06:41:03;;;;;;;;;27.67;23.00;;;;;17.33;48.51;101672.59;6215418;22;72006;-60
2023/05/20 06:43:28;;;;;;;;;31.67;27.67;;;;;17.41;48.21;101674.78;6215174;22;72395;-60
2023/05/20 06:45:54;;;;;;;;;27.67;24.00;;;;;17.56;47.97;101666.66;6215558;22;67502;-60
2023/05/20 06:48:19;;;;;;;;;19.67;19.33;;;;;17.76;47.57;101659.97;6216582;22;45576;-60
2023/05/20 06:50:44;;;;;;;;;22.67;20.67;;;;;17.93;47.49;101654.34;6216280;22;46355;-60
2023/05/20 06:53:10;;;;;;;;;23.50;22.00;;;;;18.11;47.02;101659.47;6188562;22;51365;-60
2023/05/20 06:55:36;;;;;;;;;29.00;27.33;;;;;18.32;46.75;101657.97;6216132;22;51167;-60
2023/05/20 06:58:02;;;;;;;;;27.67;23.33;;;;;18.54;46.20;101667.25;6189553;22;45742;-60
2023/05/20 07:00:27;;;;;;;;;25.33;22.00;;;;;18.72;46.07;101658.81;6189764;22;45383;-60
2023/05/20 07:02:52;;;;;;;;;27.00;23.33;;;;;18.96;45.54;101650.84;6189616;22;50466;-60
2023/05/20 07:05:18;;;;;;;;;26.33;22.33;;;;;19.14;45.18;101654.91;6215781;22;60420;-60
2023/05/20 07:07:43;;;;;;;;;25.67;23.33;;;;;19.29;44.92;101655.59;6216446;22;45299;-60
2023/05/20 07:10:08;;;;;;;;;29.00;21.67;;;;;19.51;44.67;101654.88;6163197;22;63442;-60
2023/05/20 07:12:34;;;;;;;;;23.33;23.33;;;;;19.80;44.19;101656.38;6189717;22;45346;-60
2023/05/20 07:15:00;;;;;;;;;27.00;21.67;;;;;19.98;43.67;101659.53;6190150;22;45388;-60
2023/05/20 07:17:25;;;;;;;;;21.33;21.33;;;;;20.12;42.79;101659.34;6217597;22;45386;-60
2023/05/20 07:19:51;;;;;;;;;25.33;22.00;;;;;20.29;43.18;101655.31;6217556;22;46375;-60
2023/05/20 07:22:16;;;;;;;;;26.00;19.67;;;;;20.64;43.18;101648.13;6215975;22;67683;-60
2023/05/20 07:24:41;;;;;;;;;20.67;18.67;;;;;21.10;42.24;101651.72;6216503;22;63409;-60
2023/05/20 07:27:07;;;;;;;;;22.33;22.33;;;;;21.58;42.06;101648.66;6216664;22;60186;-60
2023/05/20 07:29:34;;;;;;;;;15.00;14.67;;;;;22.24;41.22;101639.50;6216951;22;60626;-60
2023/05/20 07:31:59;;;;;;;;;19.33;19.33;;;;;23.77;40.62;101630.44;6190202;22;45351;-61
2023/05/20 07:34:25;;;;;;;;;23.00;22.33;;;;;24.82;37.64;101634.09;6216763;22;55886;-61
2023/05/20 07:36:50;;;;;;;;;23.00;21.33;;;;;25.68;36.13;101632.00;6217447;22;45361;-61
2023/05/20 07:39:15;;;;;;;;;20.33;19.67;;;;;26.29;35.74;101627.56;6217589;22;45225;-61
2023/05/20 07:41:41;;;;;;;;;19.67;18.67;;;;;26.33;33.68;101631.69;6190226;22;54928;-61
2023/05/20 07:44:10;;;;;;;;;23.00;18.67;;;;;26.73;34.92;101619.31;6217678;22;45163;-61
2023/05/20 07:46:36;;;;;;;;;21.33;21.33;;;;;28.71;33.96;101630.41;6217347;22;45419;-61
2023/05/20 07:49:02;;;;;;;;;25.67;19.00;;;;;29.29;30.85;101630.16;6190065;22;45449;-61
2023/05/20 07:51:28;;;;;;;;;22.67;19.67;;;;;29.14;28.16;101627.31;6217105;22;45290;-61
2023/05/20 07:53:53;;;;;;;;;20.33;19.33;;;;;29.59;29.08;101632.19;6190014;22;64259;-61
2023/05/20 07:56:18;;;;;;;;;20.67;17.00;;;;;29.97;28.77;101621.28;6190361;22;50775;-61
2023/05/20 07:58:54;;;;;;;;;21.00;21.00;;;;;30.79;27.47;101608.56;6216554;22;63906;-61
2023/05/20 08:01:20;;;;;;;;;22.00;21.00;;;;;31.08;27.48;101609.59;6217677;22;45403;-62
2023/05/20 08:03:45;;;;;;;;;20.00;19.00;;;;;31.60;26.55;101613.97;6190768;22;45412;-61
2023/05/20 08:06:10;;;;;;;;;16.67;15.33;;;;;32.15;25.53;101605.97;6190487;22;45301;-61
2023/05/20 08:08:36;;;;;;;;;22.33;18.00;;;;;32.97;23.19;101609.00;6190572;22;45868;-62
2023/05/20 08:11:02;;;;;;;;;16.67;16.67;;;;;33.84;24.87;101605.56;6190682;22;45340;-62
2023/05/20 08:13:28;;;;;;;;;20.67;18.33;;;;;34.68;23.68;101610.53;6217876;22;45318;-62
2023/05/20 08:15:53;;;;;;;;;18.67;18.00;;;;;35.13;23.74;101601.41;6217555;22;45343;-62
2023/05/20 08:18:19;;;;;;;;;18.67;17.33;;;;;35.80;20.60;101612.03;6217453;22;46140;-62
2023/05/20 08:20:44;;;;;;;;;18.33;17.67;;;;;35.47;21.12;101604.84;6164190;22;45336;-62
2023/05/20 08:23:09;;;;;;;;;15.67;15.00;;;;;34.94;20.41;101612.34;6188966;22;64350;-62
2023/05/20 08:25:36;;;;;;;;;17.00;16.00;;;;;35.03;22.35;101611.03;6217438;22;45336;-62
2023/05/20 08:28:05;;;;;;;;;15.33;14.67;;;;;35.76;21.16;101608.84;6190152;22;47404;-62
2023/05/20 08:30:31;;;;;;;;;15.33;13.67;;;;;36.17;20.63;101604.66;6191130;22;45414;-62
2023/05/20 08:32:57;;;;;;;;;15.67;15.00;;;;;36.82;20.91;101602.44;6218014;22;45467;-62
2023/05/20 08:35:22;;;;;;;;;16.00;14.00;;;;;38.45;20.26;101608.81;6189681;22;63811;-62
2023/05/20 08:37:48;;;;;;;;;13.33;13.00;;;;;39.83;16.82;101607.00;6217342;22;46301;-63
2023/05/20 08:40:14;;;;;;;;;16.33;14.67;;;;;40.90;17.08;101597.59;6190357;22;52041;-63
2023/05/20 08:42:42;;;;;;;;;16.67;16.00;;;;;42.30;17.15;101598.53;6190662;22;45355;-63
2023/05/20 08:45:11;;;;;;;;;17.67;13.67;;;;;43.39;16.81;101596.06;6190730;22;45276;-62
2023/05/20 08:47:41;;;;;;;;;17.00;15.67;;;;;44.85;15.80;101590.66;6217129;22;45958;-63
2023/05/20 08:50:07;;;;;;;;;14.33;12.33;;;;;45.80;14.26;101593.25;6165573;22;45183;-63
2023/05/20 08:52:34;;;;;;;;;12.33;11.33;;;;;46.32;13.01;101585.13;6190077;22;45271;-63
2023/05/20 08:54:59;;;;;;;;;13.33;11.33;;;;;46.57;13.38;101588.72;6190422;22;45208;-63
2023/05/20 08:57:26;;;;;;;;;13.67;11.67;;;;;46.89;11.82;101584.38;6190464;22;45812;-63
2023/05/20 08:59:52;;;;;;;;;11.25;10.25;;;;;47.24;10.33;101596.22;6191039;22;45365;-63
2023/05/20 09:02:17;;;;;;;;;11.33;11.00;;;;;47.23;11.37;101574.84;6190516;22;47358;-63
2023/05/20 09:04:43;;;;;;;;;9.25;7.50;;;;;47.76;12.16;101572.78;6217723;22;45428;-63
2023/05/20 09:07:08;;;;;;;;;10.67;9.00;;;;;48.84;11.51;101591.09;6189645;22;49071;-63
2023/05/20 09:09:34;;;;;;;;;13.33;12.33;;;;;49.90;10.87;101581.34;6217164;22;45331;-64
2023/05/20 09:12:01;;;;;;;;;6.67;5.00;;;;;50.31;11.09;101579.31;6165318;22;45386;-64
2023/05/20 09:14:28;;;;;;;;;9.00;9.00;;;;;50.48;10.23;101581.34;6190883;22;45411;-64
2023/05/20 09:16:53;;;;;;;;;8.00;8.00;;;;;50.89;9.70;101582.91;6190066;22;47909;-64
2023/05/20 09:19:21;;;;;;;;;8.50;8.50;;;;;50.47;8.89;101574.88;6216765;22;58445;-64
2023/05/20 09:21:46;;;;;;;;;8.67;8.67;;;;;50.28;9.50;101574.31;6190529;22;45321;-63
2023/05/20 09:24:12;;;;;;;;;7.50;7.50;;;;;50.48;8.44;101572.88;6190890;22;45180;-64
2023/05/20 09:26:37;;;;;;;;;8.00;6.25;;;;;50.66;9.67;101570.88;6164934;22;46604;-64
2023/05/20 09:29:03;;;;;;;;;9.50;8.50;;;;;51.00;7.10;101574.88;6217081;22;45367;-64
2023/05/20 09:31:34;;;;;;;;;10.25;9.00;;;;;51.17;8.80;101576.06;6190500;22;45408;-64
2023/05/20 09:34:00;;;;;;;;;7.50;7.00;;;;;51.06;8.74;101565.09;6190633;22;45353;-64
2023/05/20 09:36:28;;;;;;;;;10.00;9.50;;;;;51.39;7.95;101563.69;6189728;22;46358;-64
2023/05/20 09:38:56;;;;;;;;;7.75;7.25;;;;;51.35;8.85;101549.34;6190213;22;45270;-64
2023/05/20 09:41:23;;;;;;;;;10.00;8.33;;;;;51.49;8.67;101546.34;6190361;22;45379;-62
2023/05/20 09:43:49;;;;;;;;;9.67;9.00;;;;;51.56;7.77;101559.97;6217243;22;45279;-64
2023/05/20 09:46:15;;;;;;;;;9.00;7.33;;;;;51.01;7.35;101555.91;6190328;22;45356;-64
2023/05/20 09:48:41;;;;;;;;;8.00;8.00;;;;;50.46;7.61;101552.59;6215960;22;59739;-64
2023/05/20 09:51:06;;;;;;;;;8.67;8.67;;;;;49.57;7.87;101544.97;6164738;22;45361;-64
2023/05/20 09:53:32;;;;;;;;;12.67;9.67;;;;;49.64;9.03;101536.88;6190104;22;45451;-64
2023/05/20 09:55:57;;;;;;;;;9.00;7.25;;;;;49.99;8.60;101536.19;6216291;22;60062;-64
2023/05/20 09:58:24;;;;;;;;;10.00;8.33;;;;;50.32;7.93;101547.88;6190141;22;45240;-64
2023/05/20 10:00:49;;;;;;;;;7.50;5.75;;;;;50.46;8.18;101529.97;6190764;22;45285;-64
2023/05/20 10:03:15;;;;;;;;;7.00;7.00;;;;;50.84;7.88;101534.09;6190171;22;45386;-64
2023/05/20 10:05:48;;;;;;;;;8.50;8.25;;;;;51.53;7.95;101520.97;6190211;22;46037;-64
2023/05/20 10:08:38;;;;;;;;;6.75;6.25;;;;;52.67;7.15;101517.44;6164980;22;45389;-64
2023/05/20 10:11:13;;;;;;;;;8.00;7.00;;;;;52.48;7.64;101512.28;6217239;22;45245;-64
2023/05/20 10:13:48;;;;;;;;;8.67;8.67;;;;;52.46;7.78;101514.66;6190554;22;45475;-64
2023/05/20 10:16:38;;;;;;;;;7.00;7.00;;;;;52.31;6.91;101522.59;6216874;22;45279;-65
2023/05/20 10:19:39;;;;;;;;;10.00;7.00;;;;;51.99;6.77;101510.75;6216756;22;45443;-64
2023/05/20 10:22:07;;;;;;;;;7.00;7.00;;;;;51.86;7.32;101507.00;6214870;22;45241;-64
2023/05/20 10:24:41;;;;;;;;;7.00;7.00;;;;;52.33;7.30;101513.72;6190270;22;45486;-65
2023/05/20 10:27:11;;;;;;;;;6.00;6.00;;;;;53.11;6.75;101515.03;6189431;22;45284;-65
2023/05/20 10:29:43;;;;;;;;;7.50;7.50;;;;;53.41;7.21;101509.16;6216936;22;45343;-65
2023/05/20 10:32:09;;;;;;;;;8.00;6.50;;;;;53.34;6.10;101506.91;6190039;22;45344;-65
2023/05/20 10:34:47;;;;;;;;;6.33;6.33;;;;;53.02;6.07;101515.09;6189757;22;45285;-65
2023/05/20 10:37:33;;;;;;;;;7.75;6.75;;;;;53.09;7.11;101517.34;6189355;22;47035;-65
2023/05/20 10:40:10;;;;;;;;;0.50;0.00;;;;;53.21;6.85;101516.56;6189882;22;45266;-64
2023/05/20 10:42:35;;;;;;;;;8.50;6.75;;;;;52.87;6.98;101502.41;6216363;22;45350;-64
2023/05/20 10:45:02;;;;;;;;;6.75;6.75;;;;;53.01;6.77;101506.94;6217185;22;45216;-65
2023/05/20 10:47:28;;;;;;;;;8.25;7.75;;;;;53.08;6.36;101501.50;6164434;22;48297;-64
2023/05/20 10:49:53;;;;;;;;;5.75;5.75;;;;;52.28;6.43;101494.91;6216797;22;45436;-64
2023/05/20 10:52:19;;;;;;;;;6.50;6.50;;;;;51.50;6.22;101499.00;6215410;22;63130;-64
2023/05/20 10:55:05;;;;;;;;;5.75;5.75;;;;;50.71;7.32;101494.38;6164434;22;45282;-64
2023/05/20 10:57:33;;;;;;;;;7.00;7.00;;;;;50.01;6.81;101484.97;6189172;22;46962;-64
2023/05/20 10:59:59;;;;;;;;;7.50;7.50;;;;;48.90;8.17;101484.56;6216970;22;45284;-64
2023/05/20 11:02:27;;;;;;;;;6.75;5.25;;;;;48.35;8.50;101474.34;6216804;22;45291;-64
2023/05/20 11:04:54;;;;;;;;;7.25;7.25;;;;;47.92;8.99;101466.28;6190021;22;45536;-64
2023/05/20 11:07:27;;;;;;;;;6.50;6.50;;;;;48.24;8.90;101473.72;6216167;22;45380;-64
2023/05/20 11:09:54;;;;;;;;;5.75;5.75;;;;;48.70;8.37;101460.56;6216366;22;45386;-64
2023/05/20 11:12:21;;;;;;;;;5.25;5.00;;;;;49.10;7.88;101465.47;6216509;22;45312;-64